Time;durP1;ratioP1;P1;durP2;ratioP2;P2;SDS_P1;SDS_P2;PMS_P1;PMS_P2;Temp;Humidity;BMP_temperature;BMP_pressure;BME280_temperature;BME280_humidity;BME280_pressure;Samples;Min_cycle;Max_cycle;Signal;HPM_P1;HPM_P2
2023/10/12 00:01:57;;;;;;;;;;;;;;;17.62;100.00;100164.00;5024252;28;20095;-79
2023/10/12 00:04:23;;;;;;;;;;;;;;;17.63;100.00;100155.00;5011307;28;19921;-78
2023/10/12 00:06:48;;;;;;;;;;;;;;;17.62;100.00;100164.84;5022041;28;20023;-79
2023/10/12 00:09:18;;;;;;;;;;;;;;;17.62;100.00;100154.16;5019263;28;20412;-77
2023/10/12 00:11:48;;;;;;;;;;;;;;;17.61;100.00;100162.38;5012487;28;19921;-79
2023/10/12 00:14:22;;;;;;;;;;;;;;;17.55;100.00;100159.34;5019631;28;20120;-79
2023/10/12 00:16:48;;;;;;;;;;;;;;;17.50;100.00;100155.53;5022216;28;19921;-78
2023/10/12 00:19:14;;;;;;;;;;;;;;;17.46;100.00;100151.53;5018096;28;20299;-79
2023/10/12 00:21:43;;;;;;;;;;;;;;;17.33;100.00;100144.09;5026445;28;19932;-79
2023/10/12 00:24:13;;;;;;;;;;;;;;;17.19;100.00;100155.47;5023065;28;19926;-79
2023/10/12 00:26:41;;;;;;;;;;;;;;;17.11;100.00;100150.16;5025732;28;19928;-79
2023/10/12 00:29:07;;;;;;;;;;;;;;;17.08;100.00;100155.84;5020790;28;19947;-78
2023/10/12 00:31:35;;;;;;;;;;;;;;;17.09;100.00;100152.97;5022935;28;20007;-79
2023/10/12 00:34:02;;;;;;;;;;;;;;;17.07;100.00;100148.84;5022773;28;20374;-78
2023/10/12 00:36:27;;;;;;;;;;;;;;;17.14;100.00;100152.50;5022301;28;19967;-78
2023/10/12 00:38:53;;;;;;;;;;;;;;;17.17;100.00;100150.31;5018694;28;19953;-79
2023/10/12 00:41:19;;;;;;;;;;;;;;;17.17;100.00;100146.81;5020468;28;20038;-78
2023/10/12 00:44:12;;;;;;;;;;;;;;;17.08;100.00;100139.84;5003315;28;20461;-79
2023/10/12 00:49:22;;;;;;;;;;;;;;;17.07;100.00;100140.84;5021550;28;20281;-79
2023/10/12 00:51:52;;;;;;;;;;;;;;;17.02;100.00;100144.00;5009424;28;19925;-79
2023/10/12 00:54:26;;;;;;;;;;;;;;;17.02;100.00;100148.53;5019486;28;20317;-79
2023/10/12 00:56:53;;;;;;;;;;;;;;;16.97;100.00;100142.84;5004375;28;19924;-79
2023/10/12 00:59:22;;;;;;;;;;;;;;;16.96;100.00;100135.88;5019578;28;19944;-78
2023/10/12 01:01:50;;;;;;;;;;;;;;;16.92;100.00;100134.50;5022440;28;20337;-79
2023/10/12 01:04:16;;;;;;;;;;;;;;;16.85;100.00;100144.22;5019990;28;19925;-78
2023/10/12 01:06:47;;;;;;;;;;;;;;;16.88;100.00;100141.19;5027231;28;20052;-79
2023/10/12 01:09:19;;;;;;;;;;;;;;;16.82;100.00;100139.22;5017061;28;19933;-78
2023/10/12 01:12:00;;;;;;;;;;;;;;;16.70;100.00;100142.22;5024206;28;20016;-79
2023/10/12 01:14:30;;;;;;;;;;;;;;;16.72;100.00;100134.06;5021250;28;19928;-78
2023/10/12 01:17:03;;;;;;;;;;;;;;;16.68;100.00;100138.88;5028988;28;19952;-78
2023/10/12 01:19:33;;;;;;;;;;;;;;;16.65;100.00;100141.06;5022913;28;19972;-77
2023/10/12 01:22:12;;;;;;;;;;;;;;;16.63;100.00;100135.88;5023709;28;20274;-78
2023/10/12 01:27:21;;;;;;;;;;;;;;;16.56;100.00;100129.53;5018367;28;19960;-79
2023/10/12 01:29:47;;;;;;;;;;;;;;;16.60;100.00;100128.25;5023111;28;19921;-79
2023/10/12 01:34:38;;;;;;;;;;;;;;;16.38;100.00;100131.53;5025527;28;19936;-78
2023/10/12 01:37:08;;;;;;;;;;;;;;;16.42;100.00;100129.38;5019548;28;19922;-79
2023/10/12 01:39:38;;;;;;;;;;;;;;;16.42;100.00;100124.88;5020250;28;20008;-78
2023/10/12 01:42:05;;;;;;;;;;;;;;;16.38;100.00;100127.03;5018950;28;19921;-79
2023/10/12 01:44:32;;;;;;;;;;;;;;;16.43;100.00;100123.91;5021802;28;19928;-78
2023/10/12 01:46:57;;;;;;;;;;;;;;;16.39;100.00;100123.38;5017320;28;19921;-79
2023/10/12 01:49:23;;;;;;;;;;;;;;;16.41;100.00;100120.56;5021867;28;20286;-79
2023/10/12 01:51:48;;;;;;;;;;;;;;;16.36;100.00;100117.56;5016602;28;20032;-79
2023/10/12 01:54:22;;;;;;;;;;;;;;;16.34;100.00;100117.72;5000864;28;19928;-79
2023/10/12 01:56:48;;;;;;;;;;;;;;;16.31;100.00;100119.88;5020192;28;19921;-79
2023/10/12 01:59:19;;;;;;;;;;;;;;;16.34;100.00;100114.22;5014032;28;20301;-79
2023/10/12 02:01:46;;;;;;;;;;;;;;;16.37;100.00;100113.91;5015370;28;19988;-77
2023/10/12 02:04:13;;;;;;;;;;;;;;;16.36;100.00;100112.22;5019551;28;19928;-78
2023/10/12 02:06:39;;;;;;;;;;;;;;;16.32;100.00;100111.72;5018849;28;20015;-78
2023/10/12 02:09:10;;;;;;;;;;;;;;;16.32;100.00;100114.38;5023402;28;20358;-78
2023/10/12 02:11:43;;;;;;;;;;;;;;;16.32;100.00;100116.19;5009780;28;19928;-77
2023/10/12 02:14:11;;;;;;;;;;;;;;;16.28;100.00;100117.53;5011323;28;19932;-78
2023/10/12 02:16:43;;;;;;;;;;;;;;;16.25;100.00;100118.72;5024400;28;20039;-79
2023/10/12 02:19:08;;;;;;;;;;;;;;;16.26;100.00;100122.19;5022353;28;19925;-79
2023/10/12 02:21:37;;;;;;;;;;;;;;;16.28;100.00;100117.53;5020413;22;20354;-79
2023/10/12 02:29:11;;;;;;;;;;;;;;;16.26;100.00;100117.69;4990635;28;20385;-78
2023/10/12 02:34:18;;;;;;;;;;;;;;;16.26;100.00;100127.50;4986336;28;19932;-77
2023/10/12 02:37:18;;;;;;;;;;;;;;;16.21;100.00;100122.69;4968911;28;19922;-78
2023/10/12 02:39:46;;;;;;;;;;;;;;;16.21;100.00;100121.84;4986391;28;19926;-77
2023/10/12 02:47:22;;;;;;;;;;;;;;;16.33;100.00;100117.88;4985549;28;20020;-77
2023/10/12 02:49:48;;;;;;;;;;;;;;;16.31;100.00;100120.72;4986565;28;19921;-77
2023/10/12 02:52:14;;;;;;;;;;;;;;;16.31;100.00;100119.88;4985747;28;20402;-78
2023/10/12 02:54:50;;;;;;;;;;;;;;;16.28;100.00;100117.53;4987440;28;20276;-77
2023/10/12 02:57:23;;;;;;;;;;;;;;;16.29;100.00;100117.38;4990523;28;20031;-77
2023/10/12 02:59:57;;;;;;;;;;;;;;;16.29;100.00;100116.56;4980410;28;19925;-78
2023/10/12 03:02:24;;;;;;;;;;;;;;;16.19;100.00;100115.88;4985679;28;19921;-78
2023/10/12 03:04:49;;;;;;;;;;;;;;;15.93;100.00;100122.16;4985656;28;19922;-78
2023/10/12 03:07:22;;;;;;;;;;;;;;;15.90;100.00;100122.47;4990769;28;20441;-78
2023/10/12 03:09:57;;;;;;;;;;;;;;;15.96;100.00;100121.81;4987672;28;19918;-78
2023/10/12 03:12:23;;;;;;;;;;;;;;;16.00;100.00;100116.19;4989456;28;19922;-78
2023/10/12 03:14:51;;;;;;;;;;;;;;;16.01;100.00;100117.84;4985635;28;19924;-78
2023/10/12 03:17:20;;;;;;;;;;;;;;;15.96;100.00;100115.69;4990599;28;19932;-78
2023/10/12 03:19:56;;;;;;;;;;;;;;;15.85;100.00;100121.28;4984504;28;20274;-77
2023/10/12 03:22:44;;;;;;;;;;;;;;;15.47;100.00;100120.00;4983852;28;19922;-77
2023/10/12 03:25:36;;;;;;;;;;;;;;;15.36;100.00;100121.13;4993604;28;20017;-77
2023/10/12 03:28:11;;;;;;;;;;;;;;;15.32;100.00;100126.91;4987267;28;20333;-77
2023/10/12 03:30:43;;;;;;;;;;;;;;;15.29;100.00;100127.22;4987786;28;19941;-77
2023/10/12 03:33:14;;;;;;;;;;;;;;;14.94;100.00;100129.03;4992441;28;19921;-76
2023/10/12 03:35:52;;;;;;;;;;;;;;;14.95;100.00;100125.41;4985617;28;19952;-79
2023/10/12 03:38:19;;;;;;;;;;;;;;;14.86;100.00;100121.00;4990835;28;19921;-79
2023/10/12 03:40:50;;;;;;;;;;;;;;;14.91;100.00;100118.69;4985520;28;20394;-79
2023/10/12 03:43:26;;;;;;;;;;;;;;;15.09;100.00;100111.50;4987658;28;19965;-79
2023/10/12 03:46:07;;;;;;;;;;;;;;;15.22;100.00;100112.91;4986610;28;19922;-78
2023/10/12 03:49:06;;;;;;;;;;;;;;;15.33;100.00;100110.78;4983771;28;19922;-79
2023/10/12 03:51:41;;;;;;;;;;;;;;;15.41;100.00;100115.31;4987779;28;20071;-79
2023/10/12 03:56:51;;;;;;;;;;;;;;;15.59;100.00;100112.59;4987656;28;19921;-78
2023/10/12 03:59:25;;;;;;;;;;;;;;;15.67;100.00;100108.09;4975097;28;19929;-79
2023/10/12 04:01:53;;;;;;;;;;;;;;;15.76;100.00;100115.13;4987325;28;19922;-78
2023/10/12 04:04:34;;;;;;;;;;;;;;;15.77;100.00;100116.81;4991412;28;19929;-79
2023/10/12 04:09:43;;;;;;;;;;;;;;;15.68;100.00;100109.78;4983847;28;20397;-79
2023/10/12 04:25:24;;;;;;;;;;;;;;;15.68;100.00;100123.09;4992856;28;19928;-79
2023/10/12 04:27:57;;;;;;;;;;;;;;;15.71;100.00;100122.78;4992033;28;19952;-78
2023/10/12 04:33:17;;;;;;;;;;;;;;;15.72;100.00;100129.78;4978886;28;20326;-78
2023/10/12 04:35:52;;;;;;;;;;;;;;;15.71;100.00;100133.41;4982492;28;19952;-78
2023/10/12 04:43:37;;;;;;;;;;;;;;;15.80;100.00;100143.06;5023934;22;20023;-80
2023/10/12 04:46:26;;;;;;;;;;;;;;;15.85;100.00;100145.25;5023052;28;19922;-80
2023/10/12 04:51:39;;;;;;;;;;;;;;;15.88;100.00;100140.44;5022172;28;19925;-80
2023/10/12 04:54:16;;;;;;;;;;;;;;;15.90;100.00;100143.75;5024852;28;19968;-82
2023/10/12 04:56:53;;;;;;;;;;;;;;;15.93;100.00;100135.47;5023618;28;20317;-79
2023/10/12 04:59:26;;;;;;;;;;;;;;;16.02;100.00;100130.19;5018663;22;19932;-78
2023/10/12 05:04:48;;;;;;;;;;;;;;;16.12;100.00;100136.16;5023145;28;19921;-80
2023/10/12 05:09:49;;;;;;;;;;;;;;;16.23;100.00;100138.50;5024491;28;19925;-81
2023/10/12 05:12:17;;;;;;;;;;;;;;;16.23;100.00;100143.84;5023629;28;19967;-78
2023/10/12 05:14:43;;;;;;;;;;;;;;;16.27;100.00;100147.81;5019429;28;19929;-77
2023/10/12 05:17:09;;;;;;;;;;;;;;;16.29;100.00;100151.16;5027802;28;20012;-78
2023/10/12 05:19:35;;;;;;;;;;;;;;;16.25;100.00;100152.50;5027530;28;19925;-79
2023/10/12 05:22:00;;;;;;;;;;;;;;;16.23;100.00;100149.16;5026069;28;19932;-78
2023/10/12 05:24:25;;;;;;;;;;;;;;;16.16;100.00;100150.81;5025085;28;20353;-83
2023/10/12 05:27:09;;;;;;;;;;;;;;;16.14;100.00;100161.63;5027518;28;19967;-81
2023/10/12 05:29:38;;;;;;;;;;;;;;;16.13;100.00;100157.31;5021853;28;19927;-82
2023/10/12 05:32:06;;;;;;;;;;;;;;;16.20;100.00;100157.50;5024244;28;19921;-82
2023/10/12 05:34:34;;;;;;;;;;;;;;;16.25;100.00;100157.84;5032055;28;19967;-82
2023/10/12 05:37:07;;;;;;;;;;;;;;;16.29;100.00;100164.50;5030049;28;20366;-84
2023/10/12 05:39:33;;;;;;;;;;;;;;;16.28;100.00;100163.66;5026359;28;19925;-83
2023/10/12 05:42:01;;;;;;;;;;;;;;;16.28;100.00;100162.81;5026820;28;19987;-81
2023/10/12 05:44:27;;;;;;;;;;;;;;;16.31;100.00;100162.50;4991392;28;19921;-81
2023/10/12 05:46:58;;;;;;;;;;;;;;;16.31;100.00;100162.50;5023796;28;20032;-82
2023/10/12 05:49:25;;;;;;;;;;;;;;;16.33;100.00;100152.50;5027880;28;19921;-81
2023/10/12 05:51:50;;;;;;;;;;;;;;;16.35;100.00;100163.81;4673294;28;9999963;-81
2023/10/12 05:54:19;;;;;;;;;;;;;;;16.39;100.00;100154.50;5016326;28;19925;-80
2023/10/12 05:56:45;;;;;;;;;;;;;;;16.38;100.00;100163.47;5016861;28;19933;-80
2023/10/12 05:59:14;;;;;;;;;;;;;;;16.39;100.00;100165.16;5017695;28;20303;-81
2023/10/12 06:01:45;;;;;;;;;;;;;;;16.34;100.00;100162.16;5020791;28;19925;-82
2023/10/12 06:04:14;;;;;;;;;;;;;;;16.33;100.00;100171.13;5016005;28;19988;-80
2023/10/12 06:06:43;;;;;;;;;;;;;;;16.32;100.00;100169.47;4671080;28;10000600;-83
2023/10/12 06:09:12;;;;;;;;;;;;;;;16.31;100.00;100178.47;5005901;28;20590;-81
2023/10/12 06:11:44;;;;;;;;;;;;;;;16.34;100.00;100173.66;5019054;28;19961;-82
2023/10/12 06:14:10;;;;;;;;;;;;;;;16.35;100.00;100180.66;5023652;28;19928;-81
2023/10/12 06:16:39;;;;;;;;;;;;;;;16.37;100.00;100177.81;5029611;28;19921;-81
2023/10/12 06:19:05;;;;;;;;;;;;;;;16.36;100.00;100177.00;5024623;28;19967;-81
2023/10/12 06:21:39;;;;;;;;;;;;;;;16.38;100.00;100190.94;5019202;28;19964;-81
2023/10/12 06:24:05;;;;;;;;;;;;;;;16.37;100.00;100193.81;5027567;28;19961;-83
2023/10/12 06:26:34;;;;;;;;;;;;;;;16.39;100.00;100191.78;5015636;28;19964;-81
2023/10/12 06:29:00;;;;;;;;;;;;;;;16.37;100.00;100193.81;5013495;28;20416;-78
2023/10/12 06:31:29;;;;;;;;;;;;;;;16.38;100.00;100195.44;5017150;28;19929;-80
2023/10/12 06:33:55;;;;;;;;;;;;;;;16.39;100.00;100205.09;5012591;28;19925;-81
2023/10/12 06:36:36;;;;;;;;;;;;;;;16.39;100.00;100200.63;5013455;28;19944;-80
2023/10/12 06:40:08;;;;;;;;;;;;;;;16.45;100.00;100200.94;5017834;28;19936;-79
2023/10/12 06:46:53;;;;;;;;;;;;;;;16.47;100.00;100213.13;5014903;28;20322;-81
2023/10/12 06:49:22;;;;;;;;;;;;;;;16.48;100.00;100205.97;5013958;28;19928;-82
2023/10/12 06:51:54;;;;;;;;;;;;;;;16.48;100.00;100212.13;5019004;28;19948;-80
2023/10/12 06:59:52;;;;;;;;;;;;;;;16.50;100.00;100218.09;5012984;28;20032;-81
2023/10/12 07:02:27;;;;;;;;;;;;;;;16.47;100.00;100221.13;5013775;28;20108;-79
2023/10/12 07:04:53;;;;;;;;;;;;;;;16.47;100.00;100221.13;5012661;28;19967;-79
2023/10/12 07:07:26;;;;;;;;;;;;;;;16.48;100.00;100220.13;5015466;28;19961;-80
2023/10/12 07:09:52;;;;;;;;;;;;;;;16.44;100.00;100215.25;5011665;28;19929;-78
2023/10/12 07:12:19;;;;;;;;;;;;;;;16.42;100.00;100210.13;5012353;28;20027;-79
2023/10/12 07:14:47;;;;;;;;;;;;;;;16.47;100.00;100225.59;5007675;28;20675;-80
2023/10/12 07:17:16;;;;;;;;;;;;;;;16.59;100.00;100219.84;5015822;28;20021;-78
2023/10/12 07:19:49;;;;;;;;;;;;;;;16.68;100.00;100218.00;5012814;28;19971;-80
2023/10/12 07:22:15;;;;;;;;;;;;;;;16.71;100.00;100218.50;4998277;28;19929;-80
2023/10/12 07:24:44;;;;;;;;;;;;;;;16.83;100.00;100224.34;5013328;28;20779;-80
2023/10/12 07:27:11;;;;;;;;;;;;;;;16.90;100.00;100227.19;5014342;28;19929;-79
2023/10/12 07:29:37;;;;;;;;;;;;;;;16.96;100.00;100226.50;5014417;28;19925;-81
2023/10/12 07:33:04;;;;;;;;;;;;;;;17.01;100.00;100229.50;5014976;28;20361;-80
2023/10/12 07:35:06;;;;;;;;;;;;;;;17.09;100.00;100230.31;5001163;28;19925;-81
2023/10/12 07:37:31;;;;;;;;;;;;;;;17.18;100.00;100236.47;5013835;28;19999;-81
2023/10/12 07:40:13;;;;;;;;;;;;;;;17.26;100.00;100238.31;5014809;28;19929;-81
2023/10/12 07:42:39;;;;;;;;;;;;;;;17.38;100.00;100240.44;5014675;28;19963;-80
2023/10/12 07:45:06;;;;;;;;;;;;;;;17.45;100.00;100236.09;5020843;28;19921;-81
2023/10/12 07:47:32;;;;;;;;;;;;;;;17.50;100.00;100244.41;5026748;28;20397;-80
2023/10/12 07:50:25;;;;;;;;;;;;;;;17.59;100.00;100242.56;5028823;28;19921;-81
2023/10/12 07:52:53;;;;;;;;;;;;;;;17.68;100.00;100246.06;5027640;28;19921;-79
2023/10/12 07:55:19;;;;;;;;;;;;;;;17.75;100.00;100250.53;5025722;28;20410;-81
2023/10/12 07:57:46;;;;;;;;;;;;;;;17.81;100.00;100249.03;5028161;28;19932;-80
2023/10/12 08:05:33;;;;;;;;;;;;;;;17.98;100.00;100246.13;5024807;28;19921;-80
2023/10/12 08:08:08;;;;;;;;;;;;;;;18.05;100.00;100251.59;5025133;28;20360;-81
2023/10/12 08:13:14;;;;;;;;;;;;;;;18.17;100.00;100252.88;5025300;28;19922;-82
2023/10/12 08:21:31;;;;;;;;;;;;;;;18.40;100.00;100251.09;5004444;28;19921;-82
2023/10/12 08:29:17;;;;;;;;;;;;;;;18.69;100.00;100239.72;5024482;28;19928;-80
2023/10/12 08:31:45;;;;;;;;;;;;;;;18.77;100.00;100238.84;5026955;28;20067;-82
2023/10/12 08:40:06;;;;;;;;;;;;;;;18.88;100.00;100235.75;5024159;28;20268;-81
2023/10/12 08:45:09;;;;;;;;;;;;;;;19.01;100.00;100243.16;5026975;28;19972;-81
2023/10/12 08:50:05;;;;;;;;;;;;;;;19.11;100.00;100244.56;5026276;28;19921;-81
2023/10/12 08:52:38;;;;;;;;;;;;;;;19.17;100.00;100254.53;5026519;28;19921;-81
2023/10/12 08:55:06;;;;;;;;;;;;;;;19.21;100.00;100250.47;5024851;28;19943;-81
2023/10/12 08:57:49;;;;;;;;;;;;;;;19.16;100.00;100242.19;5023501;28;20354;-81
2023/10/12 09:02:52;;;;;;;;;;;;;;;19.22;100.00;100252.16;5001047;28;20774;-79
2023/10/12 09:05:24;;;;;;;;;;;;;;;19.26;100.00;100249.97;5016471;28;19929;-83
2023/10/12 09:08:05;;;;;;;;;;;;;;;19.35;100.00;100250.69;5016845;28;19979;-82
2023/10/12 09:11:44;;;;;;;;;;;;;;;19.44;100.00;100254.97;5017242;28;20475;-82
2023/10/12 09:13:36;;;;;;;;;;;;;;;19.54;100.00;100250.22;5001380;28;19971;-82
2023/10/12 09:16:09;;;;;;;;;;;;;;;19.55;100.00;100251.88;5013992;28;20048;-84
2023/10/12 09:18:43;;;;;;;;;;;;;;;19.58;100.00;100243.47;5015894;28;19929;-81
2023/10/12 09:23:50;;;;;;;;;;;;;;;19.60;100.00;100236.09;5018787;28;19929;-79
2023/10/12 09:26:19;;;;;;;;;;;;;;;19.60;100.00;100233.41;5017647;28;19991;-80
2023/10/12 09:31:14;;;;;;;;;;;;;;;19.66;100.00;100232.66;5018487;28;19962;-81
2023/10/12 09:36:26;;;;;;;;;;;;;;;19.77;100.00;100234.88;5021775;28;19929;-80
2023/10/12 09:38:56;;;;;;;;;;;;;;;19.82;100.00;100229.78;4998315;28;20472;-81
2023/10/12 09:41:32;;;;;;;;;;;;;;;19.89;100.00;100233.41;5044433;22;20059;-79
2023/10/12 09:44:00;;;;;;;;;;;;;;;19.96;100.00;100234.31;5027979;28;20012;-80
2023/10/12 09:46:27;;;;;;;;;;;;;;;20.01;100.00;100237.25;5023085;28;20672;-81
2023/10/12 09:49:06;;;;;;;;;;;;;;;20.08;100.00;100233.84;5028372;28;19939;-80
2023/10/12 09:51:45;;;;;;;;;;;;;;;20.16;100.00;100233.69;5024018;28;19967;-81
2023/10/12 09:54:18;;;;;;;;;;;;;;;20.19;100.00;100228.00;5027037;28;19944;-81
2023/10/12 09:56:57;;;;;;;;;;;;;;;20.24;100.00;100225.56;5026817;28;19925;-81
2023/10/12 09:59:22;;;;;;;;;;;;;;;20.31;100.00;100229.16;5016570;28;20381;-81
2023/10/12 10:02:31;;;;;;;;;;;;;;;20.38;100.00;100227.41;5026596;28;20005;-76
2023/10/12 10:05:27;;;;;;;;;;;;;;;20.43;100.00;100223.16;4963821;28;19925;-77
2023/10/12 10:08:02;;;;;;;;;;;;;;;20.53;100.00;100225.50;4963559;28;19922;-79
2023/10/12 10:10:32;;;;;;;;;;;;;;;20.59;100.00;100224.75;4960223;28;19922;-77
2023/10/12 10:13:08;;;;;;;;;;;;;;;20.67;100.00;100231.84;4965276;28;19973;-79
2023/10/12 10:15:45;;;;;;;;;;;;;;;20.74;100.00;100228.19;4964797;28;19922;-79
2023/10/12 10:18:16;;;;;;;;;;;;;;;20.81;100.00;100223.72;4965192;28;20018;-79
2023/10/12 10:20:56;;;;;;;;;;;;;;;20.90;100.00;100223.59;4960557;28;19922;-80
2023/10/12 10:23:22;;;;;;;;;;;;;;;20.96;100.00;100220.13;4959214;28;20328;-79
2023/10/12 10:25:56;;;;;;;;;;;;;;;21.02;100.00;100225.56;4964989;28;19922;-79
2023/10/12 10:28:28;;;;;;;;;;;;;;;21.09;100.00;100222.91;4944628;28;20398;-79
2023/10/12 10:31:03;;;;;;;;;;;;;;;21.17;100.00;100222.81;4965041;28;19932;-79
2023/10/12 10:33:29;;;;;;;;;;;;;;;21.22;100.00;100220.34;4964522;28;19982;-79
2023/10/12 10:35:56;;;;;;;;;;;;;;;21.28;100.00;100214.22;4965199;28;19997;-79
2023/10/12 10:38:23;;;;;;;;;;;;;;;21.33;100.00;100214.44;4962405;28;19930;-79
2023/10/12 10:40:49;;;;;;;;;;;;;;;21.37;100.00;100207.69;4994901;28;19967;-78
2023/10/12 10:43:15;;;;;;;;;;;;;;;21.42;100.00;100205.22;5031056;28;19976;-78
2023/10/12 10:45:56;;;;;;;;;;;;;;;21.47;100.00;100208.16;5030324;28;19928;-79
2023/10/12 10:48:21;;;;;;;;;;;;;;;21.50;100.00;100199.69;5027198;28;19929;-79
2023/10/12 10:50:51;;;;;;;;;;;;;;;21.53;100.00;100196.63;5030055;28;19933;-79
2023/10/12 10:53:18;;;;;;;;;;;;;;;21.56;100.00;100190.84;5025550;28;19932;-79
2023/10/12 10:55:43;;;;;;;;;;;;;;;21.58;100.00;100194.16;5026144;28;19925;-80
2023/10/12 10:58:09;;;;;;;;;;;;;;;21.61;100.00;100183.03;5029317;28;19921;-78
2023/10/12 11:00:36;;;;;;;;;;;;;;;21.62;100.00;100176.59;5029024;28;19948;-80
2023/10/12 11:03:05;;;;;;;;;;;;;;;21.65;100.00;100184.28;5029419;28;19991;-78
2023/10/12 11:05:30;;;;;;;;;;;;;;;21.75;100.00;100183.06;5024939;28;19999;-80
2023/10/12 11:08:15;;;;;;;;;;;;;;;21.83;100.00;100182.91;5020549;28;20021;-78
2023/10/12 11:11:19;;;;;;;;;;;;;;;21.91;100.00;100172.00;5006928;28;20466;-77
2023/10/12 11:13:26;;;;;;;;;;;;;;;22.01;100.00;100172.47;5026994;28;20020;-79
2023/10/12 11:15:52;;;;;;;;;;;;;;;22.12;100.00;100163.81;5028580;28;20359;-78
2023/10/12 11:18:18;;;;;;;;;;;;;;;22.20;100.00;100150.22;5030466;28;20424;-78
2023/10/12 11:20:43;;;;;;;;;;;;;;;22.31;100.00;100149.59;5011414;28;20266;-78
2023/10/12 11:23:11;;;;;;;;;;;;;;;22.45;100.00;100132.44;5033345;28;20027;-77
2023/10/12 11:25:39;;;;;;;;;;;;;;;22.59;100.00;100132.47;5031893;28;20004;-78
2023/10/12 11:28:26;;;;;;;;;;;;;;;22.76;100.00;100131.03;5033214;28;19921;-78
2023/10/12 11:30:52;;;;;;;;;;;;;;;22.94;100.00;100120.47;4332249;28;10000752;-78
2023/10/12 11:33:23;;;;;;;;;;;;;;;23.11;100.00;100116.28;5031249;28;20034;-78
2023/10/12 11:35:48;;;;;;;;;;;;;;;23.30;100.00;100114.59;5028130;28;19931;-77
2023/10/12 11:38:18;;;;;;;;;;;;;;;23.43;100.00;100113.72;5031057;28;19999;-78
2023/10/12 11:40:52;;;;;;;;;;;;;;;23.57;100.00;100104.56;5011672;28;20260;-78
2023/10/12 11:43:19;;;;;;;;;;;;;;;23.68;100.00;100109.28;5029839;28;20394;-77
2023/10/12 11:45:55;;;;;;;;;;;;;;;23.81;100.00;100100.31;5025772;28;20686;-78
2023/10/12 11:48:22;;;;;;;;;;;;;;;23.91;100.00;100096.13;5027153;28;19925;-77
2023/10/12 11:50:50;;;;;;;;;;;;;;;23.96;100.00;100082.84;5030046;28;19929;-79
2023/10/12 11:53:17;;;;;;;;;;;;;;;23.98;100.00;100078.03;5027327;28;20381;-78
2023/10/12 11:55:43;;;;;;;;;;;;;;;23.94;100.00;100076.00;5011359;28;20427;-79
2023/10/12 11:58:09;;;;;;;;;;;;;;;24.04;100.00;100074.47;5031093;28;20289;-78
2023/10/12 12:00:37;;;;;;;;;;;;;;;24.14;100.00;100062.41;5030255;28;19921;-79
2023/10/12 12:03:03;;;;;;;;;;;;;;;24.21;100.00;100063.22;5029214;28;19932;-79
2023/10/12 12:05:33;;;;;;;;;;;;;;;24.31;100.00;100058.97;5029952;28;19925;-80
2023/10/12 12:07:59;;;;;;;;;;;;;;;24.48;100.00;100051.16;5029708;28;20385;-78
2023/10/12 12:10:29;;;;;;;;;;;;;;;24.63;100.00;100057.03;5030498;28;19929;-78
2023/10/12 12:12:57;;;;;;;;;;;;;;;24.78;100.00;100049.41;5029565;28;19929;-77
2023/10/12 12:15:24;;;;;;;;;;;;;;;24.90;100.00;100056.81;5027986;28;20364;-80
2023/10/12 12:17:50;;;;;;;;;;;;;;;25.03;100.00;100051.28;4680670;28;10000213;-80
2023/10/12 12:20:21;;;;;;;;;;;;;;;25.16;100.00;100045.69;5033156;28;19929;-82
2023/10/12 12:22:46;;;;;;;;;;;;;;;25.32;100.00;100050.50;5029635;28;19921;-80
2023/10/12 12:25:20;;;;;;;;;;;;;;;25.46;100.00;100043.88;5031930;28;20247;-82
2023/10/12 12:27:48;;;;;;;;;;;;;;;25.58;100.00;100050.19;5028246;28;19925;-81
2023/10/12 12:30:28;;;;;;;;;;;;;;;25.68;100.00;100045.06;5031629;28;19917;-87
2023/10/12 12:33:00;;;;;;;;;;;;;;;25.66;100.00;100036.38;5029019;28;19921;-83
2023/10/12 12:35:28;;;;;;;;;;;;;;;25.77;100.00;100031.22;5031294;28;20063;-81
2023/10/12 12:38:00;;;;;;;;;;;;;;;25.80;100.00;100028.88;5031142;28;19921;-81
2023/10/12 12:40:38;;;;;;;;;;;;;;;25.95;100.00;100028.47;5031347;28;19921;-89
2023/10/12 12:43:07;;;;;;;;;;;;;;;26.11;100.00;100022.38;5033330;28;19909;-84
2023/10/12 12:45:35;;;;;;;;;;;;;;;26.23;100.00;100020.56;5033788;28;20572;-86
2023/10/12 12:48:01;;;;;;;;;;;;;;;26.26;100.00;100017.41;5035174;28;19956;-87
2023/10/12 12:50:28;;;;;;;;;;;;;;;26.23;100.00;100025.97;5031296;28;20358;-85
2023/10/12 12:52:53;;;;;;;;;;;;;;;26.36;100.00;100014.94;5034283;28;19953;-87
2023/10/12 12:55:21;;;;;;;;;;;;;;;26.52;100.00;100017.97;5034697;28;19982;-85
2023/10/12 12:57:47;;;;;;;;;;;;;;;26.56;100.00;100016.47;5014656;28;20407;-86
2023/10/12 13:00:19;;;;;;;;;;;;;;;26.59;100.00;100013.28;5031977;28;19924;-80
2023/10/12 13:02:46;;;;;;;;;;;;;;;26.73;100.00;100009.28;5014916;28;19925;-83
2023/10/12 13:05:12;;;;;;;;;;;;;;;26.67;100.00;100005.63;5032344;28;20369;-81
2023/10/12 13:07:40;;;;;;;;;;;;;;;26.72;100.00;100004.91;5030277;28;19924;-81
2023/10/12 13:10:07;;;;;;;;;;;;;;;26.85;100.00;100001.97;5031957;28;20369;-83
2023/10/12 13:12:32;;;;;;;;;;;;;;;26.92;100.00;99996.47;5030143;28;19975;-81
2023/10/12 13:15:02;;;;;;;;;;;;;;;27.05;100.00;99990.75;5013747;28;19917;-81
2023/10/12 13:17:30;;;;;;;;;;;;;;;27.16;100.00;99985.31;5030996;28;19956;-86
2023/10/12 13:19:58;;;;;;;;;;;;;;;27.29;100.00;99987.75;5031213;28;20437;-82
2023/10/12 13:22:27;;;;;;;;;;;;;;;27.34;100.00;99991.59;5031073;28;20051;-85
2023/10/12 13:24:56;;;;;;;;;;;;;;;27.37;100.00;99988.44;5031488;28;20399;-83
2023/10/12 13:27:23;;;;;;;;;;;;;;;27.37;100.00;99977.59;5008184;28;20223;-83
2023/10/12 13:29:49;;;;;;;;;;;;;;;27.42;100.00;99980.38;5030770;28;19929;-83
2023/10/12 13:32:17;;;;;;;;;;;;;;;27.45;100.00;99986.13;5022959;28;19932;-87
2023/10/12 13:34:42;;;;;;;;;;;;;;;27.50;100.00;99983.53;5030521;28;19929;-86
2023/10/12 13:37:08;;;;;;;;;;;;;;;27.47;100.00;99985.91;5032584;28;19921;-85
2023/10/12 13:39:33;;;;;;;;;;;;;;;27.41;100.00;99984.16;5031220;28;20277;-84
2023/10/12 13:41:59;;;;;;;;;;;;;;;27.38;100.00;99981.94;5030335;28;19949;-80
2023/10/12 13:44:29;;;;;;;;;;;;;;;27.22;100.00;99992.47;5029195;28;20018;-81
2023/10/12 13:46:55;;;;;;;;;;;;;;;27.08;100.00;99996.53;5036395;28;19933;-84
2023/10/12 13:49:22;;;;;;;;;;;;;;;26.93;100.00;99993.50;5033210;28;19921;-84
2023/10/12 13:51:48;;;;;;;;;;;;;;;26.79;100.00;99987.50;5031404;28;20550;-86
2023/10/12 13:54:14;;;;;;;;;;;;;;;26.63;100.00;99998.19;5031907;28;20421;-88
2023/10/12 13:56:44;;;;;;;;;;;;;;;26.54;100.00;99992.34;5034614;28;19933;-86
2023/10/12 13:59:14;;;;;;;;;;;;;;;26.46;100.00;99998.91;5031657;28;19975;-87
2023/10/12 14:01:39;;;;;;;;;;;;;;;26.35;100.00;99991.63;5024885;28;19929;-87
2023/10/12 14:04:28;;;;;;;;;;;;;;;26.27;100.00;99978.44;5030694;28;20027;-85
2023/10/12 14:06:52;;;;;;;;;;;;;;;26.16;100.00;99986.50;5028766;28;20391;-87
2023/10/12 14:12:00;;;;;;;;;;;;;;;25.89;100.00;99972.63;5218597;23;20291;-86
2023/10/12 14:19:41;;;;;;;;;;;;;;;25.60;100.00;99967.03;5118106;22;19926;-87
2023/10/12 14:22:07;;;;;;;;;;;;;;;25.54;100.00;99962.50;4983945;28;19922;-87
2023/10/12 14:24:33;;;;;;;;;;;;;;;25.47;100.00;99967.19;5185321;22;20102;-84
2023/10/12 14:27:00;;;;;;;;;;;;;;;25.39;100.00;99959.38;5003089;28;19979;-87
2023/10/12 14:32:01;;;;;;;;;;;;;;;25.27;100.00;99958.53;5052248;22;19952;-88
2023/10/12 14:34:27;;;;;;;;;;;;;;;25.22;100.00;99961.06;5002535;28;20019;-87
2023/10/12 14:36:52;;;;;;;;;;;;;;;25.18;100.00;99962.59;5056823;23;20386;-87
2023/10/12 14:39:24;;;;;;;;;;;;;;;25.15;100.00;99950.34;4988535;28;20016;-86
2023/10/12 14:41:50;;;;;;;;;;;;;;;25.13;100.00;99948.94;5085100;23;20362;-88